Time;durP1;ratioP1;P1;durP2;ratioP2;P2;SDS_P1;SDS_P2;PMS_P1;PMS_P2;Temp;Humidity;BMP_temperature;BMP_pressure;BME280_temperature;BME280_humidity;BME280_pressure;Samples;Min_cycle;Max_cycle;Signal;HPM_P1;HPM_P2
2022/04/05 00:00:36;;;;;;;;;19.50;19.50;;;;;;;;5047106;28;11460;-78
2022/04/05 00:03:05;;;;;;;;;20.75;19.50;;;;;;;;5043066;28;12480;-78
2022/04/05 00:05:32;;;;;;;;;15.25;15.25;;;;;;;;5052622;28;11540;-78
2022/04/05 00:08:00;;;;;;;;;25.25;20.50;;;;;;;;5049227;28;11550;-78
2022/04/05 00:10:30;;;;;;;;;16.50;16.50;;;;;;;;5055958;28;11552;-78
2022/04/05 00:12:58;;;;;;;;;20.25;19.25;;;;;;;;5054210;28;11516;-78
2022/04/05 00:15:25;;;;;;;;;16.25;15.00;;;;;;;;5051232;28;11540;-78
2022/04/05 00:17:53;;;;;;;;;19.50;16.75;;;;;;;;5051860;28;11508;-78
2022/04/05 00:20:21;;;;;;;;;16.75;16.75;;;;;;;;5051391;28;11641;-78
2022/04/05 00:22:50;;;;;;;;;10.50;10.00;;;;;;;;5050652;28;11540;-78
2022/04/05 00:25:17;;;;;;;;;18.50;15.75;;;;;;;;5044260;28;11522;-77
2022/04/05 00:27:45;;;;;;;;;20.50;19.25;;;;;;;;5057102;28;11541;-78
2022/04/05 00:30:13;;;;;;;;;22.75;20.50;;;;;;;;5045088;28;11518;-77
2022/04/05 00:32:41;;;;;;;;;18.25;16.50;;;;;;;;5058932;28;11654;-78
2022/04/05 00:35:09;;;;;;;;;21.50;20.00;;;;;;;;5049935;28;11507;-77
2022/04/05 00:37:38;;;;;;;;;16.25;16.25;;;;;;;;5049204;28;11522;-77
2022/04/05 00:40:07;;;;;;;;;19.75;19.75;;;;;;;;5046709;28;11535;-77
2022/04/05 00:42:36;;;;;;;;;19.75;19.25;;;;;;;;5048651;28;11533;-78
2022/04/05 00:45:03;;;;;;;;;19.75;19.75;;;;;;;;5053677;28;11522;-78
2022/04/05 00:47:31;;;;;;;;;21.50;21.50;;;;;;;;5053923;28;12482;-78
2022/04/05 00:49:58;;;;;;;;;17.75;16.25;;;;;;;;5053500;28;11520;-77
2022/04/05 00:52:27;;;;;;;;;25.50;22.00;;;;;;;;5053495;28;11552;-77
2022/04/05 00:54:57;;;;;;;;;20.00;16.00;;;;;;;;5061617;28;11535;-77
2022/04/05 00:57:25;;;;;;;;;20.00;18.50;;;;;;;;5054887;28;12008;-78
2022/04/05 00:59:56;;;;;;;;;26.00;22.00;;;;;;;;5061953;28;11616;-77
2022/04/05 01:02:26;;;;;;;;;24.00;24.00;;;;;;;;5055672;28;11507;-78
2022/04/05 01:04:53;;;;;;;;;21.00;21.00;;;;;;;;5054279;28;11511;-78
2022/04/05 01:07:22;;;;;;;;;24.75;22.75;;;;;;;;5055943;28;11663;-78
2022/04/05 01:09:53;;;;;;;;;23.50;23.50;;;;;;;;5057443;28;11535;-79
2022/04/05 01:12:23;;;;;;;;;25.75;24.00;;;;;;;;5055191;28;11588;-78
2022/04/05 01:14:52;;;;;;;;;24.25;24.25;;;;;;;;5060440;28;11556;-77
2022/04/05 01:17:19;;;;;;;;;19.00;19.00;;;;;;;;5056048;28;11541;-77
2022/04/05 01:19:47;;;;;;;;;23.75;21.75;;;;;;;;5056678;28;11514;-77
2022/04/05 01:22:14;;;;;;;;;24.50;22.75;;;;;;;;5047552;28;12779;-78
2022/04/05 01:24:43;;;;;;;;;25.75;25.75;;;;;;;;5058678;28;11529;-76
2022/04/05 01:27:16;;;;;;;;;33.50;27.75;;;;;;;;5052496;28;11538;-76
2022/04/05 01:29:44;;;;;;;;;24.25;24.25;;;;;;;;5052057;28;11535;-78
2022/04/05 01:32:11;;;;;;;;;28.00;25.00;;;;;;;;5059200;28;11568;-78
2022/04/05 01:34:39;;;;;;;;;25.50;24.25;;;;;;;;5050951;28;13644;-78
2022/04/05 01:37:08;;;;;;;;;28.25;23.50;;;;;;;;5059484;28;11596;-78
2022/04/05 01:39:38;;;;;;;;;27.00;24.00;;;;;;;;5056297;28;11623;-78
2022/04/05 01:42:09;;;;;;;;;22.00;20.50;;;;;;;;5055157;28;11731;-78
2022/04/05 01:44:38;;;;;;;;;29.00;24.00;;;;;;;;5064769;28;11458;-77
2022/04/05 01:47:07;;;;;;;;;18.75;16.75;;;;;;;;5052645;28;11596;-77
2022/04/05 01:49:35;;;;;;;;;28.75;27.75;;;;;;;;5057034;28;11608;-77
2022/04/05 01:52:02;;;;;;;;;30.00;25.75;;;;;;;;5055359;28;12721;-77
2022/04/05 01:54:29;;;;;;;;;25.00;25.00;;;;;;;;5053285;28;11628;-78
2022/04/05 01:56:56;;;;;;;;;28.50;22.75;;;;;;;;5060705;28;11591;-79
2022/04/05 01:59:27;;;;;;;;;23.75;23.75;;;;;;;;5058766;28;11590;-78
2022/04/05 02:01:55;;;;;;;;;23.25;21.25;;;;;;;;5051708;28;11562;-78
2022/04/05 02:04:22;;;;;;;;;21.00;19.75;;;;;;;;5055940;28;12646;-78
2022/04/05 02:06:50;;;;;;;;;35.00;24.50;;;;;;;;5053929;28;11531;-78
2022/04/05 02:09:18;;;;;;;;;33.00;30.50;;;;;;;;5055546;28;11579;-78
2022/04/05 02:11:46;;;;;;;;;27.00;26.25;;;;;;;;5059313;28;11615;-79
2022/04/05 02:14:15;;;;;;;;;30.00;26.50;;;;;;;;5045893;28;11563;-78
2022/04/05 02:16:44;;;;;;;;;30.00;28.50;;;;;;;;5058514;28;11609;-78
2022/04/05 02:19:11;;;;;;;;;29.50;28.25;;;;;;;;5057803;28;12325;-78
2022/04/05 02:21:39;;;;;;;;;28.75;28.75;;;;;;;;5055212;28;11603;-78
2022/04/05 02:24:07;;;;;;;;;25.75;25.75;;;;;;;;5053728;28;11588;-77
2022/04/05 02:26:34;;;;;;;;;28.50;25.75;;;;;;;;5056403;28;11707;-78
2022/04/05 02:29:02;;;;;;;;;23.50;21.50;;;;;;;;5060822;28;11705;-78
2022/04/05 02:31:29;;;;;;;;;22.75;22.75;;;;;;;;5057867;28;11792;-80
2022/04/05 02:33:58;;;;;;;;;21.75;20.25;;;;;;;;5062318;28;11542;-77
2022/04/05 02:36:25;;;;;;;;;21.50;21.50;;;;;;;;5057274;28;11551;-77
2022/04/05 02:38:54;;;;;;;;;28.50;25.25;;;;;;;;5064181;28;11538;-78
2022/04/05 02:41:21;;;;;;;;;24.00;19.75;;;;;;;;5064077;28;11609;-77
2022/04/05 02:43:48;;;;;;;;;19.00;18.75;;;;;;;;5061457;28;11511;-78
2022/04/05 02:46:15;;;;;;;;;20.75;20.75;;;;;;;;5061197;28;11636;-78
2022/04/05 02:48:45;;;;;;;;;23.25;20.50;;;;;;;;5061270;28;11637;-78
2022/04/05 02:51:14;;;;;;;;;23.25;22.25;;;;;;;;5055630;28;11571;-78
2022/04/05 02:53:43;;;;;;;;;25.75;22.50;;;;;;;;5062231;28;11612;-78
2022/04/05 02:56:10;;;;;;;;;21.75;19.50;;;;;;;;5052744;28;11543;-78
2022/04/05 02:58:38;;;;;;;;;28.75;27.00;;;;;;;;5091514;28;11506;-77
2022/04/05 03:01:06;;;;;;;;;22.25;19.00;;;;;;;;5058662;28;11500;-77
2022/04/05 03:03:34;;;;;;;;;26.75;22.25;;;;;;;;5058943;28;11572;-79
2022/04/05 03:06:02;;;;;;;;;27.75;20.25;;;;;;;;5058047;28;11528;-78
2022/04/05 03:08:31;;;;;;;;;24.00;24.00;;;;;;;;5059765;28;11533;-78
2022/04/05 03:10:59;;;;;;;;;19.25;19.25;;;;;;;;5057904;28;11642;-78
2022/04/05 03:13:26;;;;;;;;;25.50;25.25;;;;;;;;5061568;28;11507;-78
2022/04/05 03:15:53;;;;;;;;;22.75;22.75;;;;;;;;5062913;28;12301;-78
2022/04/05 03:18:21;;;;;;;;;25.75;23.25;;;;;;;;5061749;28;11552;-77
2022/04/05 03:20:48;;;;;;;;;30.50;24.50;;;;;;;;5061768;28;11546;-77
2022/04/05 03:23:15;;;;;;;;;26.50;21.00;;;;;;;;5061647;28;11515;-79
2022/04/05 03:25:44;;;;;;;;;26.00;23.25;;;;;;;;5054395;28;11534;-78
2022/04/05 03:28:12;;;;;;;;;25.50;21.75;;;;;;;;5053696;28;11529;-77
2022/04/05 03:30:40;;;;;;;;;24.75;23.25;;;;;;;;5049313;28;11453;-78
2022/04/05 03:33:07;;;;;;;;;27.75;26.75;;;;;;;;5056733;28;11535;-78
2022/04/05 03:35:35;;;;;;;;;27.75;24.50;;;;;;;;5062421;28;11578;-78
2022/04/05 03:38:02;;;;;;;;;25.50;24.25;;;;;;;;5053177;28;11535;-78
2022/04/05 03:40:31;;;;;;;;;20.50;20.50;;;;;;;;5046095;28;11503;-78
2022/04/05 03:43:00;;;;;;;;;35.25;28.00;;;;;;;;5055980;28;11615;-77
2022/04/05 03:45:27;;;;;;;;;23.00;20.75;;;;;;;;5054676;28;11721;-78
2022/04/05 03:47:54;;;;;;;;;27.25;26.75;;;;;;;;5056150;28;11527;-78
2022/04/05 03:50:22;;;;;;;;;16.50;15.75;;;;;;;;5057450;28;11543;-77
2022/04/05 03:52:49;;;;;;;;;29.25;28.00;;;;;;;;5055116;28;11674;-77
2022/04/05 03:55:17;;;;;;;;;28.50;24.25;;;;;;;;5059677;28;11690;-77
2022/04/05 03:57:44;;;;;;;;;24.50;22.50;;;;;;;;5046289;28;11538;-77
2022/04/05 04:00:14;;;;;;;;;27.50;24.50;;;;;;;;5052882;28;11592;-77
2022/04/05 04:02:41;;;;;;;;;24.25;23.25;;;;;;;;5049761;28;11567;-77
2022/04/05 04:05:09;;;;;;;;;23.25;20.50;;;;;;;;5052431;28;11719;-78
2022/04/05 04:07:39;;;;;;;;;25.25;25.25;;;;;;;;5050922;28;11507;-76
2022/04/05 04:10:08;;;;;;;;;26.50;22.25;;;;;;;;5060787;28;11545;-76
2022/04/05 04:12:35;;;;;;;;;26.75;23.00;;;;;;;;5055644;28;11526;-77
2022/04/05 04:15:03;;;;;;;;;27.25;23.50;;;;;;;;5058097;28;11516;-76
2022/04/05 04:17:32;;;;;;;;;28.25;27.75;;;;;;;;5059379;28;11553;-77
2022/04/05 04:19:59;;;;;;;;;29.25;27.75;;;;;;;;5057168;28;12428;-77
2022/04/05 04:22:27;;;;;;;;;29.50;23.00;;;;;;;;5051806;28;11588;-75
2022/04/05 04:24:56;;;;;;;;;29.50;25.50;;;;;;;;5046483;28;11541;-77
2022/04/05 04:27:23;;;;;;;;;22.00;19.25;;;;;;;;5054241;28;11552;-76
2022/04/05 04:29:51;;;;;;;;;25.75;20.25;;;;;;;;5048483;28;11529;-76
2022/04/05 04:32:18;;;;;;;;;25.00;24.75;;;;;;;;5052777;28;11614;-77
2022/04/05 04:34:47;;;;;;;;;25.25;23.50;;;;;;;;5057428;28;11507;-75
2022/04/05 04:37:15;;;;;;;;;24.25;21.50;;;;;;;;5055400;28;11668;-77
2022/04/05 04:39:43;;;;;;;;;34.75;28.25;;;;;;;;5055162;28;11516;-78
2022/04/05 04:42:12;;;;;;;;;30.75;27.25;;;;;;;;5058109;28;12672;-77
2022/04/05 04:44:39;;;;;;;;;24.75;24.75;;;;;;;;5057610;28;11614;-78
2022/04/05 04:47:07;;;;;;;;;24.50;20.75;;;;;;;;5056585;28;12438;-75
2022/04/05 04:49:35;;;;;;;;;26.50;21.00;;;;;;;;5057724;28;11546;-77
2022/04/05 04:52:04;;;;;;;;;23.00;23.00;;;;;;;;5058904;28;11519;-74
2022/04/05 04:54:32;;;;;;;;;24.25;22.75;;;;;;;;5063299;28;12463;-74
2022/04/05 04:56:59;;;;;;;;;29.25;26.25;;;;;;;;5061834;28;11531;-76
2022/04/05 04:59:26;;;;;;;;;29.00;25.50;;;;;;;;5061727;28;11536;-73
2022/04/05 05:01:54;;;;;;;;;24.25;23.25;;;;;;;;5059577;28;11608;-76
2022/04/05 05:04:21;;;;;;;;;26.75;25.75;;;;;;;;5058252;28;11502;-75
2022/04/05 05:06:48;;;;;;;;;19.50;19.00;;;;;;;;5061446;28;12232;-74
2022/04/05 05:09:17;;;;;;;;;22.50;21.25;;;;;;;;5059057;28;11552;-75
2022/04/05 05:11:45;;;;;;;;;23.50;22.75;;;;;;;;5059093;28;11538;-75
2022/04/05 05:14:12;;;;;;;;;23.50;19.50;;;;;;;;5057556;28;11505;-75
2022/04/05 05:16:40;;;;;;;;;24.25;22.75;;;;;;;;5055858;28;11534;-75
2022/04/05 05:19:07;;;;;;;;;23.00;23.00;;;;;;;;5059337;28;11569;-74
2022/04/05 05:21:35;;;;;;;;;29.25;28.25;;;;;;;;5038924;28;11693;-79
2022/04/05 05:24:05;;;;;;;;;25.25;22.75;;;;;;;;5056807;28;12462;-83
2022/04/05 05:26:34;;;;;;;;;22.00;20.50;;;;;;;;5056859;28;11533;-85
2022/04/05 05:29:01;;;;;;;;;27.00;25.25;;;;;;;;5051337;28;11604;-80
2022/04/05 05:31:29;;;;;;;;;21.50;21.50;;;;;;;;5043653;28;11608;-79
2022/04/05 05:33:57;;;;;;;;;17.75;16.25;;;;;;;;5035628;28;11539;-79
2022/04/05 05:36:24;;;;;;;;;28.25;21.25;;;;;;;;5036238;28;11690;-81
2022/04/05 05:38:51;;;;;;;;;24.25;24.25;;;;;;;;5043013;28;12355;-84
2022/04/05 05:41:18;;;;;;;;;26.25;26.25;;;;;;;;5043779;28;11513;-83
2022/04/05 05:43:47;;;;;;;;;27.75;25.25;;;;;;;;5039334;28;11532;-79
2022/04/05 05:46:15;;;;;;;;;27.25;23.75;;;;;;;;5039955;28;11651;-79
2022/04/05 05:48:43;;;;;;;;;25.75;24.00;;;;;;;;5039809;28;11541;-80
2022/04/05 05:51:11;;;;;;;;;21.25;19.25;;;;;;;;5039351;28;11525;-79
2022/04/05 05:53:38;;;;;;;;;27.75;27.00;;;;;;;;5043652;28;11557;-81
2022/04/05 05:56:06;;;;;;;;;21.25;19.25;;;;;;;;5050522;28;11552;-80
2022/04/05 05:58:34;;;;;;;;;23.50;23.50;;;;;;;;5043136;28;11635;-80
2022/04/05 06:01:02;;;;;;;;;27.75;23.50;;;;;;;;5032492;28;11599;-81
2022/04/05 06:03:30;;;;;;;;;23.75;23.50;;;;;;;;5037011;28;11619;-79
2022/04/05 06:05:57;;;;;;;;;29.50;24.50;;;;;;;;5045105;28;11516;-81
2022/04/05 06:08:24;;;;;;;;;25.75;24.25;;;;;;;;5044198;28;11614;-81
2022/04/05 06:10:52;;;;;;;;;26.00;25.00;;;;;;;;5047226;28;11542;-79
2022/04/05 06:13:21;;;;;;;;;18.00;16.50;;;;;;;;5042927;28;11564;-78
2022/04/05 06:15:48;;;;;;;;;22.50;21.00;;;;;;;;5042146;28;11512;-79
2022/04/05 06:18:17;;;;;;;;;14.75;12.50;;;;;;;;5040903;28;12389;-79
2022/04/05 06:20:44;;;;;;;;;19.75;19.00;;;;;;;;5043787;28;11648;-82
2022/04/05 06:23:12;;;;;;;;;25.25;24.75;;;;;;;;5043822;28;11539;-79
2022/04/05 06:25:39;;;;;;;;;23.50;21.25;;;;;;;;5041864;28;11567;-80
2022/04/05 06:28:08;;;;;;;;;22.00;22.00;;;;;;;;5039394;28;11542;-80
2022/04/05 06:30:37;;;;;;;;;25.25;25.25;;;;;;;;5042293;28;11492;-79
2022/04/05 06:33:06;;;;;;;;;26.75;25.00;;;;;;;;5044012;28;11647;-76
2022/04/05 06:35:35;;;;;;;;;29.50;26.75;;;;;;;;5036241;28;11553;-76
2022/04/05 06:38:02;;;;;;;;;22.00;22.00;;;;;;;;5044688;28;11525;-77
2022/04/05 06:40:30;;;;;;;;;21.25;21.25;;;;;;;;5045203;28;11567;-81
2022/04/05 06:42:57;;;;;;;;;23.00;21.25;;;;;;;;5044256;28;11553;-83
2022/04/05 06:45:25;;;;;;;;;21.00;19.50;;;;;;;;5043873;28;11540;-80
2022/04/05 06:47:53;;;;;;;;;19.25;17.00;;;;;;;;5041620;28;11554;-76
2022/04/05 06:50:24;;;;;;;;;21.50;21.00;;;;;;;;5042655;28;11517;-79
2022/04/05 06:52:54;;;;;;;;;19.00;19.00;;;;;;;;5037611;28;11531;-79
2022/04/05 06:55:21;;;;;;;;;20.50;19.75;;;;;;;;5050984;28;11543;-80
2022/04/05 06:57:49;;;;;;;;;24.25;21.75;;;;;;;;5044198;28;11623;-79
2022/04/05 07:00:18;;;;;;;;;20.25;17.75;;;;;;;;5042456;28;11563;-75
2022/04/05 07:02:45;;;;;;;;;18.00;18.00;;;;;;;;5040629;28;11565;-77
2022/04/05 07:05:13;;;;;;;;;20.00;16.00;;;;;;;;5039390;28;11561;-74
2022/04/05 07:07:41;;;;;;;;;17.50;17.50;;;;;;;;5039712;28;11578;-75
2022/04/05 07:10:12;;;;;;;;;22.25;20.50;;;;;;;;5040030;28;11641;-75
2022/04/05 07:12:40;;;;;;;;;20.50;19.75;;;;;;;;5037697;28;11523;-75
2022/04/05 07:15:10;;;;;;;;;18.50;18.50;;;;;;;;5037667;28;12341;-75
2022/04/05 07:17:38;;;;;;;;;22.00;21.00;;;;;;;;5038634;28;11625;-76
2022/04/05 07:20:09;;;;;;;;;21.50;19.00;;;;;;;;5041628;28;11566;-75
2022/04/05 07:22:37;;;;;;;;;24.25;22.50;;;;;;;;5034758;28;11665;-81
2022/04/05 07:25:04;;;;;;;;;20.75;16.75;;;;;;;;5037247;28;11655;-78
2022/04/05 07:27:33;;;;;;;;;28.00;25.00;;;;;;;;5035669;28;11566;-79
2022/04/05 07:30:00;;;;;;;;;24.75;21.75;;;;;;;;5043175;28;11537;-77
2022/04/05 07:32:28;;;;;;;;;23.50;22.50;;;;;;;;5039322;28;11617;-75
2022/04/05 07:34:56;;;;;;;;;20.25;20.25;;;;;;;;5038727;28;11637;-77
2022/04/05 07:37:23;;;;;;;;;23.50;19.00;;;;;;;;5036889;28;11510;-76
2022/04/05 07:39:51;;;;;;;;;19.00;16.50;;;;;;;;5043458;28;11519;-77
2022/04/05 07:42:19;;;;;;;;;21.00;20.50;;;;;;;;5036802;28;11602;-77
2022/04/05 07:44:48;;;;;;;;;21.25;19.50;;;;;;;;5040142;28;11245;-76
2022/04/05 07:47:15;;;;;;;;;22.75;21.50;;;;;;;;5037174;28;11326;-79
2022/04/05 07:49:43;;;;;;;;;20.00;19.50;;;;;;;;5040102;28;12362;-75
2022/04/05 07:52:11;;;;;;;;;19.00;16.25;;;;;;;;5048364;28;11368;-76
2022/04/05 07:54:38;;;;;;;;;18.00;17.75;;;;;;;;5044438;28;11183;-75
2022/04/05 07:57:08;;;;;;;;;20.50;17.75;;;;;;;;5038356;28;11523;-78
2022/04/05 07:59:35;;;;;;;;;18.00;18.00;;;;;;;;5039704;28;11214;-76
2022/04/05 08:02:05;;;;;;;;;20.00;17.75;;;;;;;;5056076;28;11242;-78
2022/04/05 08:04:32;;;;;;;;;16.50;15.50;;;;;;;;5062487;28;11342;-76
2022/04/05 08:06:59;;;;;;;;;22.75;21.00;;;;;;;;5054647;28;11191;-76
2022/04/05 08:09:26;;;;;;;;;24.25;20.50;;;;;;;;5055657;28;11171;-76
2022/04/05 08:11:54;;;;;;;;;21.75;18.00;;;;;;;;5058092;28;11147;-76
2022/04/05 08:14:27;;;;;;;;;20.50;20.00;;;;;;;;5055405;28;11240;-77
2022/04/05 08:16:55;;;;;;;;;19.75;19.50;;;;;;;;5060200;28;11059;-79
2022/04/05 08:19:24;;;;;;;;;21.00;21.00;;;;;;;;5051066;28;11803;-75
2022/04/05 08:21:52;;;;;;;;;20.75;17.50;;;;;;;;5057687;28;11868;-75
2022/04/05 08:24:20;;;;;;;;;17.00;15.00;;;;;;;;5059833;28;10969;-75
2022/04/05 08:26:47;;;;;;;;;20.25;18.00;;;;;;;;5062292;28;11100;-75
2022/04/05 08:29:14;;;;;;;;;16.50;12.50;;;;;;;;5060298;28;11033;-80
2022/04/05 08:31:42;;;;;;;;;17.50;16.00;;;;;;;;5054741;28;10936;-84
2022/04/05 08:34:09;;;;;;;;;15.25;12.75;;;;;;;;5054825;28;10908;-84
2022/04/05 08:36:38;;;;;;;;;16.00;13.75;;;;;;;;5057308;28;10918;-84
2022/04/05 08:39:06;;;;;;;;;16.75;16.75;;;;;;;;5057391;28;11032;-82
2022/04/05 08:41:36;;;;;;;;;16.00;16.00;;;;;;;;5049521;28;10827;-82
2022/04/05 08:44:04;;;;;;;;;18.50;15.25;;;;;;;;5066184;28;10911;-83
2022/04/05 08:46:35;;;;;;;;;24.25;21.00;;;;;;;;5059328;28;11754;-79
2022/04/05 08:49:03;;;;;;;;;17.25;15.75;;;;;;;;5061790;28;10923;-81
2022/04/05 08:51:31;;;;;;;;;20.00;18.75;;;;;;;;5062475;28;10893;-79
2022/04/05 08:54:00;;;;;;;;;12.50;9.50;;;;;;;;5061491;28;10919;-80
2022/04/05 08:56:30;;;;;;;;;15.75;13.75;;;;;;;;5062704;28;10856;-80
2022/04/05 08:58:58;;;;;;;;;15.50;15.50;;;;;;;;5061321;28;10959;-84
2022/04/05 09:01:29;;;;;;;;;17.50;15.00;;;;;;;;5062054;28;10781;-79
2022/04/05 09:03:56;;;;;;;;;12.00;12.00;;;;;;;;5059478;28;10736;-79
2022/04/05 09:06:28;;;;;;;;;16.25;12.75;;;;;;;;5061855;28;10761;-84
2022/04/05 09:09:10;;;;;;;;;14.00;14.00;;;;;;;;5053886;28;10766;-81
2022/04/05 09:11:43;;;;;;;;;14.25;14.25;;;;;;;;5062607;28;11525;-80
2022/04/05 09:14:10;;;;;;;;;20.00;13.75;;;;;;;;5066751;28;10829;-85
2022/04/05 09:16:37;;;;;;;;;18.25;16.00;;;;;;;;5065892;28;10556;-80
2022/04/05 09:19:11;;;;;;;;;17.50;16.00;;;;;;;;5066265;28;10522;-80
2022/04/05 09:21:52;;;;;;;;;17.00;15.50;;;;;;;;5064700;28;10707;-83
2022/04/05 09:24:21;;;;;;;;;17.25;16.25;;;;;;;;5061955;28;10767;-80
2022/04/05 09:26:48;;;;;;;;;17.75;14.50;;;;;;;;5063597;28;10760;-81
2022/04/05 09:29:18;;;;;;;;;16.75;9.00;;;;;;;;5058360;28;10672;-78
2022/04/05 09:31:49;;;;;;;;;15.25;14.25;;;;;;;;5060149;28;10639;-79
2022/04/05 09:34:19;;;;;;;;;13.00;13.00;;;;;;;;5063757;28;10613;-78
2022/04/05 09:36:49;;;;;;;;;16.25;13.75;;;;;;;;5065357;28;10518;-81
2022/04/05 09:39:18;;;;;;;;;17.75;15.50;;;;;;;;5065545;28;10735;-79
2022/04/05 09:41:48;;;;;;;;;26.50;18.00;;;;;;;;5056669;28;10584;-80
2022/04/05 09:44:26;;;;;;;;;19.25;16.25;;;;;;;;5059181;28;10670;-79
2022/04/05 09:47:03;;;;;;;;;15.00;15.00;;;;;;;;5062513;28;11408;-83
2022/04/05 09:49:35;;;;;;;;;20.25;18.00;;;;;;;;5061329;28;10685;-85
2022/04/05 09:52:03;;;;;;;;;21.75;14.75;;;;;;;;5065449;28;10682;-81
2022/04/05 09:54:32;;;;;;;;;14.00;14.00;;;;;;;;5065875;28;10761;-83
2022/04/05 09:57:07;;;;;;;;;17.00;14.75;;;;;;;;5066080;28;10515;-83
2022/04/05 09:59:40;;;;;;;;;20.75;17.00;;;;;;;;5060583;28;10627;-81
2022/04/05 10:02:15;;;;;;;;;20.75;20.75;;;;;;;;5063351;28;10593;-82
2022/04/05 10:05:01;;;;;;;;;24.00;17.50;;;;;;;;5064666;28;10414;-83
2022/04/05 10:07:30;;;;;;;;;14.50;14.50;;;;;;;;5065581;28;10517;-79
2022/04/05 10:09:59;;;;;;;;;17.75;17.75;;;;;;;;5057433;28;10500;-83
2022/04/05 10:15:13;;;;;;;;;14.00;14.00;;;;;;;;5063217;28;10276;-81
2022/04/05 10:17:44;;;;;;;;;18.25;17.75;;;;;;;;5055010;28;10375;-86
2022/04/05 10:20:12;;;;;;;;;14.75;14.75;;;;;;;;5062882;28;10490;-85
2022/04/05 10:22:43;;;;;;;;;17.00;14.50;;;;;;;;5055703;28;10354;-85
2022/04/05 10:25:12;;;;;;;;;22.50;20.00;;;;;;;;5062736;28;11053;-83
2022/04/05 10:27:41;;;;;;;;;15.75;15.75;;;;;;;;5059751;28;10265;-82
2022/04/05 10:30:17;;;;;;;;;19.50;17.00;;;;;;;;5057508;28;10253;-82
2022/04/05 10:32:51;;;;;;;;;21.25;19.50;;;;;;;;5061593;28;10374;-84
2022/04/05 10:35:24;;;;;;;;;25.25;22.25;;;;;;;;5061588;28;10342;-83
2022/04/05 10:37:53;;;;;;;;;23.00;20.50;;;;;;;;5060417;28;10437;-83
2022/04/05 10:40:21;;;;;;;;;25.25;19.50;;;;;;;;5058322;28;11273;-85
2022/04/05 10:42:52;;;;;;;;;20.50;15.75;;;;;;;;5055721;28;10427;-85
2022/04/05 10:45:25;;;;;;;;;20.25;20.25;;;;;;;;5058961;28;10199;-79
2022/04/05 10:48:13;;;;;;;;;22.75;19.75;;;;;;;;5057469;28;10278;-86
2022/04/05 10:50:41;;;;;;;;;24.75;21.00;;;;;;;;5066643;28;10189;-85
2022/04/05 10:53:14;;;;;;;;;24.25;21.50;;;;;;;;5056259;28;10124;-87
2022/04/05 10:56:14;;;;;;;;;20.25;15.50;;;;;;;;5058991;28;10511;-85
2022/04/05 10:58:58;;;;;;;;;20.25;17.75;;;;;;;;5060079;28;10033;-87
2022/04/05 11:01:28;;;;;;;;;17.75;17.75;;;;;;;;5055615;28;10064;-86
2022/04/05 11:04:31;;;;;;;;;18.25;17.00;;;;;;;;5059241;28;10129;-89
2022/04/05 11:07:11;;;;;;;;;21.25;20.50;;;;;;;;5053866;28;10263;-84
2022/04/05 11:09:50;;;;;;;;;21.50;17.00;;;;;;;;5055175;28;10117;-82
2022/04/05 11:12:21;;;;;;;;;23.00;19.00;;;;;;;;5058646;28;10068;-81
2022/04/05 11:14:53;;;;;;;;;19.75;15.50;;;;;;;;5054710;28;10136;-83
2022/04/05 11:17:21;;;;;;;;;18.75;18.75;;;;;;;;5058419;28;10266;-86
2022/04/05 11:19:52;;;;;;;;;18.75;18.75;;;;;;;;5052230;28;10116;-82
2022/04/05 11:22:43;;;;;;;;;20.50;20.25;;;;;;;;5053051;28;10137;-81
2022/04/05 11:25:11;;;;;;;;;15.25;15.25;;;;;;;;5043146;28;10056;-85
2022/04/05 11:27:44;;;;;;;;;15.75;15.75;;;;;;;;5053593;28;10124;-84
2022/04/05 11:30:40;;;;;;;;;19.25;16.50;;;;;;;;5056876;28;9949;-84
2022/04/05 11:33:15;;;;;;;;;23.25;18.50;;;;;;;;5054068;28;10284;-85
2022/04/05 11:35:45;;;;;;;;;22.00;20.00;;;;;;;;5060614;28;10118;-85
2022/04/05 11:38:26;;;;;;;;;20.25;20.25;;;;;;;;5062040;28;10939;-83
2022/04/05 11:40:55;;;;;;;;;19.75;19.75;;;;;;;;5058684;28;10030;-83
2022/04/05 11:43:27;;;;;;;;;19.00;15.75;;;;;;;;5059262;28;10119;-85
2022/04/05 11:45:58;;;;;;;;;22.50;22.50;;;;;;;;5056041;28;9960;-84
2022/04/05 11:48:27;;;;;;;;;21.75;20.25;;;;;;;;5059061;28;10082;-84
2022/04/05 11:50:56;;;;;;;;;18.00;17.00;;;;;;;;5066499;28;9878;-83
2022/04/05 11:53:25;;;;;;;;;21.50;18.50;;;;;;;;5055586;28;9991;-83
2022/04/05 11:56:10;;;;;;;;;15.50;14.25;;;;;;;;5061759;28;9930;-83
2022/04/05 11:58:39;;;;;;;;;16.50;16.50;;;;;;;;5056920;28;9803;-82
2022/04/05 12:01:09;;;;;;;;;18.00;18.00;;;;;;;;5058381;28;10616;-84
2022/04/05 12:03:50;;;;;;;;;15.00;15.00;;;;;;;;5063551;28;9736;-85
2022/04/05 12:06:22;;;;;;;;;19.00;16.50;;;;;;;;5064059;28;10087;-83
2022/04/05 12:08:52;;;;;;;;;20.75;18.75;;;;;;;;5065550;28;10073;-84
2022/04/05 12:11:20;;;;;;;;;23.50;22.00;;;;;;;;5052805;28;10793;-82
2022/04/05 12:13:58;;;;;;;;;20.25;18.50;;;;;;;;5064614;28;10045;-85
2022/04/05 12:16:29;;;;;;;;;9.75;9.75;;;;;;;;5062858;28;9896;-82
2022/04/05 12:18:58;;;;;;;;;27.25;21.25;;;;;;;;5062312;28;9963;-85
2022/04/05 12:21:26;;;;;;;;;17.00;15.75;;;;;;;;5064498;28;9970;-83
2022/04/05 12:23:54;;;;;;;;;25.75;20.75;;;;;;;;5063105;28;10043;-86
2022/04/05 12:26:24;;;;;;;;;20.50;20.50;;;;;;;;5057161;28;9901;-85
2022/04/05 12:28:53;;;;;;;;;20.50;19.75;;;;;;;;5055608;28;9808;-85
2022/04/05 12:31:22;;;;;;;;;25.00;21.50;;;;;;;;5063732;28;9821;-83
2022/04/05 12:33:59;;;;;;;;;15.50;15.50;;;;;;;;5062054;28;9942;-84
2022/04/05 12:36:27;;;;;;;;;18.00;17.25;;;;;;;;5064642;28;9852;-86
2022/04/05 12:38:55;;;;;;;;;18.50;18.50;;;;;;;;5064686;28;9896;-84
2022/04/05 12:41:22;;;;;;;;;22.50;22.50;;;;;;;;5064478;28;9803;-83
2022/04/05 12:44:12;;;;;;;;;21.00;16.50;;;;;;;;5064309;28;10023;-85
2022/04/05 12:46:46;;;;;;;;;23.50;20.50;;;;;;;;5047742;28;10264;-83
2022/04/05 12:49:24;;;;;;;;;29.25;26.25;;;;;;;;5064251;28;10013;-83
2022/04/05 12:51:52;;;;;;;;;17.75;17.25;;;;;;;;5053454;28;10135;-82
2022/04/05 12:54:27;;;;;;;;;25.25;23.75;;;;;;;;5047616;28;10066;-84
2022/04/05 12:56:54;;;;;;;;;20.50;18.00;;;;;;;;5051842;28;10127;-82
2022/04/05 12:59:27;;;;;;;;;14.50;14.50;;;;;;;;5047127;28;10081;-81
2022/04/05 13:01:56;;;;;;;;;22.00;19.00;;;;;;;;5051292;28;10018;-84
2022/04/05 13:04:25;;;;;;;;;23.25;19.25;;;;;;;;5055293;28;9980;-80
2022/04/05 13:06:59;;;;;;;;;20.50;20.50;;;;;;;;5050566;28;9903;-83
2022/04/05 13:09:29;;;;;;;;;25.75;21.75;;;;;;;;5056105;28;9942;-84
2022/04/05 13:12:14;;;;;;;;;19.75;19.75;;;;;;;;5052504;28;9939;-79
2022/04/05 13:14:42;;;;;;;;;16.75;16.75;;;;;;;;5057910;28;9901;-82
2022/04/05 13:17:09;;;;;;;;;14.75;14.75;;;;;;;;5054426;28;9853;-83
2022/04/05 13:19:38;;;;;;;;;11.25;9.25;;;;;;;;5060150;28;9508;-83
2022/04/05 13:22:14;;;;;;;;;16.75;13.25;;;;;;;;5054824;28;9479;-83
2022/04/05 13:24:44;;;;;;;;;18.75;16.00;;;;;;;;5052983;28;9559;-79
2022/04/05 13:27:15;;;;;;;;;13.00;9.25;;;;;;;;5064674;28;9486;-84
2022/04/05 13:29:45;;;;;;;;;15.75;14.25;;;;;;;;5046369;28;9741;-84
2022/04/05 13:32:18;;;;;;;;;11.00;10.00;;;;;;;;5043872;28;9561;-85
2022/04/05 13:34:48;;;;;;;;;12.33;9.00;;;;;;;;5042420;28;9494;-82
2022/04/05 13:37:18;;;;;;;;;11.33;10.67;;;;;;;;5048106;28;9424;-81
2022/04/05 13:39:49;;;;;;;;;17.50;14.50;;;;;;;;5046797;28;9416;-83
2022/04/05 13:42:18;;;;;;;;;15.00;13.67;;;;;;;;5047953;28;9607;-83
2022/04/05 13:44:45;;;;;;;;;10.00;9.00;;;;;;;;5065441;28;9549;-85
2022/04/05 13:47:14;;;;;;;;;8.33;7.00;;;;;;;;5055926;28;9339;-84
2022/04/05 13:49:43;;;;;;;;;9.00;8.00;;;;;;;;5061395;28;9248;-84
2022/04/05 13:52:11;;;;;;;;;9.00;9.00;;;;;;;;5058278;28;9440;-84
2022/04/05 14:01:51;;;;;;;;;8.00;6.33;;;;;;;;5066682;28;9474;-83
2022/04/05 14:04:19;;;;;;;;;7.33;7.33;;;;;;;;5065020;28;10135;-83
2022/04/05 14:06:47;;;;;;;;;7.33;7.33;;;;;;;;5063046;28;9186;-84
2022/04/05 14:09:21;;;;;;;;;8.33;8.00;;;;;;;;5060040;28;9220;-82
2022/04/05 14:11:50;;;;;;;;;8.33;6.67;;;;;;;;5059684;28;9931;-83
2022/04/05 14:14:17;;;;;;;;;6.33;6.33;;;;;;;;5056319;28;9104;-84
2022/04/05 14:16:45;;;;;;;;;4.00;4.00;;;;;;;;5055307;28;9226;-83
2022/04/05 14:19:12;;;;;;;;;8.67;8.67;;;;;;;;5060595;28;9321;-82
2022/04/05 14:21:40;;;;;;;;;3.33;2.00;;;;;;;;5062938;28;9292;-83
2022/04/05 14:24:08;;;;;;;;;8.00;8.00;;;;;;;;5057558;28;9174;-82
2022/04/05 14:26:37;;;;;;;;;8.00;6.33;;;;;;;;5059219;28;9214;-82
2022/04/05 14:29:05;;;;;;;;;7.00;7.00;;;;;;;;5050083;28;9229;-82
2022/04/05 14:31:33;;;;;;;;;4.33;4.33;;;;;;;;5056576;28;9131;-83
2022/04/05 14:34:00;;;;;;;;;8.00;8.00;;;;;;;;5058397;28;9350;-81
2022/04/05 14:36:28;;;;;;;;;5.00;5.00;;;;;;;;5056386;28;9253;-84
2022/04/05 14:38:58;;;;;;;;;8.00;8.00;;;;;;;;5059120;28;9205;-83
2022/04/05 14:41:25;;;;;;;;;5.00;5.00;;;;;;;;5065333;28;9998;-83
2022/04/05 14:43:59;;;;;;;;;6.33;6.33;;;;;;;;5061654;28;9239;-81